sensor_id;sensor_type;location;lat;lon;timestamp;P1;durP1;ratioP1;P2;durP2;ratioP2
47894;SDS011;33653;52.302;8.134;2023-11-19T00:01:43;5.28;;;4.28;;
47894;SDS011;33653;52.302;8.134;2023-11-19T00:07:17;4.45;;;4.05;;
47894;SDS011;33653;52.302;8.134;2023-11-19T00:12:49;5.40;;;3.88;;
47894;SDS011;33653;52.302;8.134;2023-11-19T00:15:18;6.85;;;4.78;;
47894;SDS011;33653;52.302;8.134;2023-11-19T00:17:47;5.05;;;4.05;;
47894;SDS011;33653;52.302;8.134;2023-11-19T00:20:17;7.32;;;4.65;;
47894;SDS011;33653;52.302;8.134;2023-11-19T00:22:46;6.80;;;3.95;;
47894;SDS011;33653;52.302;8.134;2023-11-19T00:25:21;8.55;;;4.43;;
47894;SDS011;33653;52.302;8.134;2023-11-19T00:28:01;6.33;;;3.93;;
47894;SDS011;33653;52.302;8.134;2023-11-19T00:30:29;4.65;;;3.50;;
47894;SDS011;33653;52.302;8.134;2023-11-19T00:33:01;4.20;;;3.63;;
47894;SDS011;33653;52.302;8.134;2023-11-19T00:35:41;4.22;;;3.28;;
47894;SDS011;33653;52.302;8.134;2023-11-19T00:38:17;3.75;;;3.15;;
47894;SDS011;33653;52.302;8.134;2023-11-19T00:40:54;4.63;;;3.10;;
47894;SDS011;33653;52.302;8.134;2023-11-19T00:43:23;7.72;;;3.05;;
47894;SDS011;33653;52.302;8.134;2023-11-19T00:51:45;3.25;;;2.70;;
47894;SDS011;33653;52.302;8.134;2023-11-19T00:54:17;3.75;;;3.20;;
47894;SDS011;33653;52.302;8.134;2023-11-19T00:57:05;4.88;;;3.47;;
47894;SDS011;33653;52.302;8.134;2023-11-19T00:59:36;6.57;;;3.60;;
47894;SDS011;33653;52.302;8.134;2023-11-19T01:02:08;4.38;;;3.40;;
47894;SDS011;33653;52.302;8.134;2023-11-19T01:04:44;3.83;;;3.30;;
47894;SDS011;33653;52.302;8.134;2023-11-19T01:07:29;6.65;;;3.88;;
47894;SDS011;33653;52.302;8.134;2023-11-19T01:09:58;3.70;;;3.30;;
47894;SDS011;33653;52.302;8.134;2023-11-19T01:12:37;3.20;;;2.70;;
47894;SDS011;33653;52.302;8.134;2023-11-19T01:15:06;4.60;;;3.60;;
47894;SDS011;33653;52.302;8.134;2023-11-19T01:17:36;7.03;;;3.60;;
47894;SDS011;33653;52.302;8.134;2023-11-19T01:20:43;5.65;;;3.92;;
47894;SDS011;33653;52.302;8.134;2023-11-19T01:23:12;5.65;;;3.97;;
47894;SDS011;33653;52.302;8.134;2023-11-19T01:25:55;5.63;;;4.03;;
47894;SDS011;33653;52.302;8.134;2023-11-19T01:28:23;4.43;;;3.20;;
47894;SDS011;33653;52.302;8.134;2023-11-19T01:33:46;5.78;;;3.97;;
47894;SDS011;33653;52.302;8.134;2023-11-19T01:36:30;5.25;;;4.00;;
47894;SDS011;33653;52.302;8.134;2023-11-19T01:39:17;6.30;;;4.50;;
47894;SDS011;33653;52.302;8.134;2023-11-19T01:45:38;6.35;;;4.32;;
47894;SDS011;33653;52.302;8.134;2023-11-19T01:48:20;7.05;;;4.70;;
47894;SDS011;33653;52.302;8.134;2023-11-19T01:50:49;7.70;;;5.15;;
47894;SDS011;33653;52.302;8.134;2023-11-19T01:53:29;7.30;;;5.38;;
47894;SDS011;33653;52.302;8.134;2023-11-19T01:56:02;8.45;;;5.15;;
47894;SDS011;33653;52.302;8.134;2023-11-19T01:58:33;6.53;;;4.95;;
47894;SDS011;33653;52.302;8.134;2023-11-19T02:01:06;7.40;;;5.05;;
47894;SDS011;33653;52.302;8.134;2023-11-19T02:03:35;10.45;;;6.55;;
47894;SDS011;33653;52.302;8.134;2023-11-19T02:06:17;7.97;;;5.80;;
47894;SDS011;33653;52.302;8.134;2023-11-19T02:08:57;10.50;;;6.50;;
47894;SDS011;33653;52.302;8.134;2023-11-19T02:11:35;16.00;;;7.40;;
47894;SDS011;33653;52.302;8.134;2023-11-19T02:14:11;10.38;;;6.15;;
47894;SDS011;33653;52.302;8.134;2023-11-19T02:16:43;10.10;;;6.53;;
47894;SDS011;33653;52.302;8.134;2023-11-19T02:19:15;13.50;;;6.18;;
47894;SDS011;33653;52.302;8.134;2023-11-19T02:22:01;10.60;;;6.15;;
47894;SDS011;33653;52.302;8.134;2023-11-19T02:28:09;9.95;;;6.65;;
47894;SDS011;33653;52.302;8.134;2023-11-19T02:33:44;10.95;;;7.43;;
47894;SDS011;33653;52.302;8.134;2023-11-19T02:39:16;14.35;;;6.97;;
47894;SDS011;33653;52.302;8.134;2023-11-19T02:41:59;13.85;;;6.55;;
47894;SDS011;33653;52.302;8.134;2023-11-19T02:44:28;13.13;;;6.72;;
47894;SDS011;33653;52.302;8.134;2023-11-19T02:49:45;15.02;;;6.88;;
47894;SDS011;33653;52.302;8.134;2023-11-19T02:52:15;13.52;;;7.07;;
47894;SDS011;33653;52.302;8.134;2023-11-19T02:54:47;13.98;;;8.23;;
47894;SDS011;33653;52.302;8.134;2023-11-19T02:57:17;12.45;;;7.07;;
47894;SDS011;33653;52.302;8.134;2023-11-19T02:59:52;14.35;;;7.32;;
47894;SDS011;33653;52.302;8.134;2023-11-19T03:05:16;15.38;;;7.72;;
47894;SDS011;33653;52.302;8.134;2023-11-19T03:07:44;12.90;;;8.20;;
47894;SDS011;33653;52.302;8.134;2023-11-19T03:10:25;14.35;;;8.48;;
47894;SDS011;33653;52.302;8.134;2023-11-19T03:12:57;14.57;;;7.55;;
47894;SDS011;33653;52.302;8.134;2023-11-19T03:15:31;13.20;;;8.30;;
47894;SDS011;33653;52.302;8.134;2023-11-19T03:18:05;11.43;;;6.18;;
47894;SDS011;33653;52.302;8.134;2023-11-19T03:20:35;15.10;;;8.45;;
47894;SDS011;33653;52.302;8.134;2023-11-19T03:23:21;13.13;;;7.32;;
47894;SDS011;33653;52.302;8.134;2023-11-19T03:25:54;15.30;;;8.15;;
47894;SDS011;33653;52.302;8.134;2023-11-19T03:28:22;14.15;;;8.07;;
47894;SDS011;33653;52.302;8.134;2023-11-19T03:34:05;16.55;;;8.55;;
47894;SDS011;33653;52.302;8.134;2023-11-19T03:36:44;12.77;;;7.43;;
47894;SDS011;33653;52.302;8.134;2023-11-19T03:39:12;13.00;;;7.20;;
47894;SDS011;33653;52.302;8.134;2023-11-19T03:41:45;15.48;;;8.10;;
47894;SDS011;33653;52.302;8.134;2023-11-19T03:44:19;17.10;;;7.85;;
47894;SDS011;33653;52.302;8.134;2023-11-19T03:46:57;16.13;;;7.03;;
47894;SDS011;33653;52.302;8.134;2023-11-19T03:49:37;11.10;;;7.10;;
47894;SDS011;33653;52.302;8.134;2023-11-19T03:52:05;10.70;;;6.67;;
47894;SDS011;33653;52.302;8.134;2023-11-19T03:54:47;15.73;;;8.10;;
47894;SDS011;33653;52.302;8.134;2023-11-19T03:57:15;13.30;;;7.75;;
47894;SDS011;33653;52.302;8.134;2023-11-19T03:59:43;17.00;;;7.65;;
47894;SDS011;33653;52.302;8.134;2023-11-19T04:06:13;12.75;;;7.65;;
47894;SDS011;33653;52.302;8.134;2023-11-19T04:08:45;13.13;;;7.75;;
47894;SDS011;33653;52.302;8.134;2023-11-19T04:11:13;16.50;;;8.18;;
47894;SDS011;33653;52.302;8.134;2023-11-19T04:13:41;12.98;;;6.65;;
47894;SDS011;33653;52.302;8.134;2023-11-19T04:18:43;12.18;;;6.45;;
47894;SDS011;33653;52.302;8.134;2023-11-19T04:23:54;18.33;;;6.80;;
47894;SDS011;33653;52.302;8.134;2023-11-19T04:26:22;8.05;;;5.43;;
47894;SDS011;33653;52.302;8.134;2023-11-19T04:29:18;10.00;;;5.90;;
47894;SDS011;33653;52.302;8.134;2023-11-19T04:31:46;10.18;;;5.97;;
47894;SDS011;33653;52.302;8.134;2023-11-19T04:34:21;17.60;;;4.95;;
47894;SDS011;33653;52.302;8.134;2023-11-19T04:36:53;12.13;;;5.55;;
47894;SDS011;33653;52.302;8.134;2023-11-19T04:39:25;12.23;;;5.32;;
47894;SDS011;33653;52.302;8.134;2023-11-19T04:45:20;9.77;;;4.88;;
47894;SDS011;33653;52.302;8.134;2023-11-19T04:47:49;13.27;;;5.20;;
47894;SDS011;33653;52.302;8.134;2023-11-19T04:55:51;6.10;;;3.90;;
47894;SDS011;33653;52.302;8.134;2023-11-19T05:01:51;11.98;;;4.43;;
47894;SDS011;33653;52.302;8.134;2023-11-19T05:04:20;17.52;;;4.43;;
47894;SDS011;33653;52.302;8.134;2023-11-19T05:06:48;7.63;;;3.13;;
47894;SDS011;33653;52.302;8.134;2023-11-19T05:09:17;8.43;;;3.17;;
47894;SDS011;33653;52.302;8.134;2023-11-19T05:11:45;13.57;;;3.92;;
47894;SDS011;33653;52.302;8.134;2023-11-19T05:14:20;10.57;;;3.38;;
47894;SDS011;33653;52.302;8.134;2023-11-19T05:16:49;9.18;;;3.13;;
47894;SDS011;33653;52.302;8.134;2023-11-19T05:19:19;10.80;;;2.95;;
47894;SDS011;33653;52.302;8.134;2023-11-19T05:21:48;9.45;;;2.70;;
47894;SDS011;33653;52.302;8.134;2023-11-19T05:24:44;10.57;;;2.85;;
47894;SDS011;33653;52.302;8.134;2023-11-19T05:27:23;16.70;;;3.17;;
47894;SDS011;33653;52.302;8.134;2023-11-19T05:29:54;9.48;;;2.25;;
47894;SDS011;33653;52.302;8.134;2023-11-19T05:32:25;4.38;;;2.35;;
47894;SDS011;33653;52.302;8.134;2023-11-19T05:40:41;15.13;;;3.10;;
47894;SDS011;33653;52.302;8.134;2023-11-19T05:43:13;9.82;;;2.63;;
47894;SDS011;33653;52.302;8.134;2023-11-19T05:45:48;7.85;;;2.60;;
47894;SDS011;33653;52.302;8.134;2023-11-19T05:51:42;6.90;;;2.03;;
47894;SDS011;33653;52.302;8.134;2023-11-19T05:54:14;17.80;;;3.47;;
47894;SDS011;33653;52.302;8.134;2023-11-19T05:56:56;5.25;;;1.95;;
47894;SDS011;33653;52.302;8.134;2023-11-19T05:59:36;7.97;;;3.35;;
47894;SDS011;33653;52.302;8.134;2023-11-19T06:02:20;14.88;;;2.80;;
47894;SDS011;33653;52.302;8.134;2023-11-19T06:04:49;5.28;;;2.38;;
47894;SDS011;33653;52.302;8.134;2023-11-19T06:07:33;15.30;;;3.15;;
47894;SDS011;33653;52.302;8.134;2023-11-19T06:10:07;4.03;;;2.40;;
47894;SDS011;33653;52.302;8.134;2023-11-19T06:12:47;10.93;;;2.47;;
47894;SDS011;33653;52.302;8.134;2023-11-19T06:15:31;10.57;;;2.20;;
47894;SDS011;33653;52.302;8.134;2023-11-19T06:18:03;11.80;;;2.88;;
47894;SDS011;33653;52.302;8.134;2023-11-19T06:20:36;14.13;;;2.50;;
47894;SDS011;33653;52.302;8.134;2023-11-19T06:23:23;9.35;;;2.08;;
47894;SDS011;33653;52.302;8.134;2023-11-19T06:25:52;11.25;;;2.88;;
47894;SDS011;33653;52.302;8.134;2023-11-19T06:28:26;16.73;;;2.55;;
47894;SDS011;33653;52.302;8.134;2023-11-19T06:31:01;11.73;;;2.88;;
47894;SDS011;33653;52.302;8.134;2023-11-19T06:33:49;13.00;;;2.53;;
47894;SDS011;33653;52.302;8.134;2023-11-19T06:36:27;11.70;;;3.17;;
47894;SDS011;33653;52.302;8.134;2023-11-19T06:38:55;6.50;;;2.33;;
47894;SDS011;33653;52.302;8.134;2023-11-19T06:41:24;6.20;;;2.10;;
47894;SDS011;33653;52.302;8.134;2023-11-19T06:43:53;10.68;;;2.08;;
47894;SDS011;33653;52.302;8.134;2023-11-19T06:46:25;11.68;;;2.70;;
47894;SDS011;33653;52.302;8.134;2023-11-19T06:49:00;17.30;;;2.55;;
47894;SDS011;33653;52.302;8.134;2023-11-19T06:51:30;10.82;;;2.80;;
47894;SDS011;33653;52.302;8.134;2023-11-19T06:53:59;23.80;;;3.65;;
47894;SDS011;33653;52.302;8.134;2023-11-19T06:56:27;12.57;;;2.25;;
47894;SDS011;33653;52.302;8.134;2023-11-19T07:02:13;8.35;;;1.67;;
47894;SDS011;33653;52.302;8.134;2023-11-19T07:04:46;18.25;;;2.67;;
47894;SDS011;33653;52.302;8.134;2023-11-19T07:07:26;11.90;;;2.38;;
47894;SDS011;33653;52.302;8.134;2023-11-19T07:10:12;10.93;;;1.88;;
47894;SDS011;33653;52.302;8.134;2023-11-19T07:12:46;9.55;;;2.72;;
47894;SDS011;33653;52.302;8.134;2023-11-19T07:15:24;14.15;;;2.90;;
47894;SDS011;33653;52.302;8.134;2023-11-19T07:17:55;20.83;;;3.15;;
47894;SDS011;33653;52.302;8.134;2023-11-19T07:20:31;8.65;;;2.08;;
47894;SDS011;33653;52.302;8.134;2023-11-19T07:23:00;9.82;;;1.98;;
47894;SDS011;33653;52.302;8.134;2023-11-19T07:25:28;12.93;;;3.17;;
47894;SDS011;33653;52.302;8.134;2023-11-19T07:28:25;7.72;;;2.80;;
47894;SDS011;33653;52.302;8.134;2023-11-19T07:34:00;12.77;;;2.70;;
47894;SDS011;33653;52.302;8.134;2023-11-19T07:36:33;14.05;;;2.63;;
47894;SDS011;33653;52.302;8.134;2023-11-19T07:41:56;7.68;;;2.25;;
47894;SDS011;33653;52.302;8.134;2023-11-19T07:44:25;13.55;;;2.20;;
47894;SDS011;33653;52.302;8.134;2023-11-19T07:49:40;13.55;;;2.88;;
47894;SDS011;33653;52.302;8.134;2023-11-19T07:52:13;12.38;;;2.63;;
47894;SDS011;33653;52.302;8.134;2023-11-19T07:58:10;10.65;;;2.17;;
47894;SDS011;33653;52.302;8.134;2023-11-19T08:00:40;16.27;;;2.58;;
47894;SDS011;33653;52.302;8.134;2023-11-19T08:03:17;12.63;;;2.30;;
47894;SDS011;33653;52.302;8.134;2023-11-19T08:05:55;15.77;;;2.97;;
47894;SDS011;33653;52.302;8.134;2023-11-19T08:11:45;13.45;;;2.83;;
47894;SDS011;33653;52.302;8.134;2023-11-19T08:14:13;8.20;;;3.03;;
47894;SDS011;33653;52.302;8.134;2023-11-19T08:16:58;5.55;;;2.58;;
47894;SDS011;33653;52.302;8.134;2023-11-19T08:19:27;30.73;;;3.65;;
47894;SDS011;33653;52.302;8.134;2023-11-19T08:30:45;14.10;;;2.85;;
47894;SDS011;33653;52.302;8.134;2023-11-19T08:36:36;24.65;;;2.95;;
47894;SDS011;33653;52.302;8.134;2023-11-19T08:42:14;11.43;;;2.88;;
47894;SDS011;33653;52.302;8.134;2023-11-19T08:44:49;13.38;;;2.28;;
47894;SDS011;33653;52.302;8.134;2023-11-19T08:47:30;15.60;;;2.45;;
47894;SDS011;33653;52.302;8.134;2023-11-19T08:49:59;10.47;;;2.20;;
47894;SDS011;33653;52.302;8.134;2023-11-19T08:52:36;8.25;;;2.58;;
47894;SDS011;33653;52.302;8.134;2023-11-19T08:58:18;15.93;;;2.65;;
47894;SDS011;33653;52.302;8.134;2023-11-19T09:00:52;17.38;;;3.03;;
47894;SDS011;33653;52.302;8.134;2023-11-19T09:03:26;9.23;;;2.13;;
47894;SDS011;33653;52.302;8.134;2023-11-19T09:06:01;7.28;;;2.20;;
47894;SDS011;33653;52.302;8.134;2023-11-19T09:08:38;16.60;;;2.40;;
47894;SDS011;33653;52.302;8.134;2023-11-19T09:11:13;17.07;;;3.13;;
47894;SDS011;33653;52.302;8.134;2023-11-19T09:19:13;11.52;;;2.03;;
47894;SDS011;33653;52.302;8.134;2023-11-19T09:21:44;6.43;;;2.00;;
47894;SDS011;33653;52.302;8.134;2023-11-19T09:24:13;13.90;;;3.10;;
47894;SDS011;33653;52.302;8.134;2023-11-19T09:29:56;22.35;;;2.95;;
47894;SDS011;33653;52.302;8.134;2023-11-19T09:32:25;16.52;;;3.28;;
47894;SDS011;33653;52.302;8.134;2023-11-19T09:41:03;11.80;;;2.92;;
47894;SDS011;33653;52.302;8.134;2023-11-19T09:46:43;18.40;;;3.05;;
47894;SDS011;33653;52.302;8.134;2023-11-19T09:49:11;14.07;;;2.75;;
47894;SDS011;33653;52.302;8.134;2023-11-19T09:51:41;14.70;;;3.17;;
47894;SDS011;33653;52.302;8.134;2023-11-19T09:57:12;15.50;;;2.72;;
47894;SDS011;33653;52.302;8.134;2023-11-19T09:59:45;8.20;;;2.25;;
47894;SDS011;33653;52.302;8.134;2023-11-19T10:02:20;13.98;;;2.30;;
47894;SDS011;33653;52.302;8.134;2023-11-19T10:04:54;21.23;;;3.15;;
47894;SDS011;33653;52.302;8.134;2023-11-19T10:07:23;20.23;;;3.88;;
47894;SDS011;33653;52.302;8.134;2023-11-19T10:12:51;12.90;;;3.30;;
47894;SDS011;33653;52.302;8.134;2023-11-19T10:15:26;13.32;;;2.88;;
47894;SDS011;33653;52.302;8.134;2023-11-19T10:18:16;12.55;;;3.08;;
47894;SDS011;33653;52.302;8.134;2023-11-19T10:26:40;18.17;;;3.10;;
47894;SDS011;33653;52.302;8.134;2023-11-19T10:29:18;12.75;;;2.67;;
47894;SDS011;33653;52.302;8.134;2023-11-19T10:31:55;15.23;;;3.38;;
47894;SDS011;33653;52.302;8.134;2023-11-19T10:34:52;6.00;;;1.92;;
47894;SDS011;33653;52.302;8.134;2023-11-19T10:37:40;18.98;;;2.97;;
47894;SDS011;33653;52.302;8.134;2023-11-19T10:40:09;18.17;;;3.08;;
47894;SDS011;33653;52.302;8.134;2023-11-19T10:46:11;9.50;;;2.40;;
47894;SDS011;33653;52.302;8.134;2023-11-19T10:48:47;12.77;;;2.40;;
47894;SDS011;33653;52.302;8.134;2023-11-19T10:51:23;9.80;;;3.58;;
47894;SDS011;33653;52.302;8.134;2023-11-19T10:57:10;10.75;;;2.53;;
47894;SDS011;33653;52.302;8.134;2023-11-19T10:59:46;21.60;;;2.42;;
47894;SDS011;33653;52.302;8.134;2023-11-19T11:05:29;6.18;;;1.85;;
47894;SDS011;33653;52.302;8.134;2023-11-19T11:11:18;15.52;;;3.20;;
47894;SDS011;33653;52.302;8.134;2023-11-19T11:13:53;20.75;;;3.33;;
47894;SDS011;33653;52.302;8.134;2023-11-19T11:22:04;13.23;;;3.08;;
47894;SDS011;33653;52.302;8.134;2023-11-19T11:38:24;11.57;;;2.90;;
47894;SDS011;33653;52.302;8.134;2023-11-19T11:44:07;9.85;;;2.80;;
47894;SDS011;33653;52.302;8.134;2023-11-19T11:49:07;9.20;;;2.97;;
47894;SDS011;33653;52.302;8.134;2023-11-19T11:59:49;13.18;;;3.05;;
47894;SDS011;33653;52.302;8.134;2023-11-19T12:02:22;9.05;;;2.75;;
47894;SDS011;33653;52.302;8.134;2023-11-19T12:04:52;9.68;;;2.70;;
47894;SDS011;33653;52.302;8.134;2023-11-19T12:07:21;12.70;;;2.65;;
47894;SDS011;33653;52.302;8.134;2023-11-19T12:10:12;6.38;;;2.22;;
47894;SDS011;33653;52.302;8.134;2023-11-19T12:12:45;18.73;;;3.70;;
47894;SDS011;33653;52.302;8.134;2023-11-19T12:15:13;13.68;;;2.80;;
47894;SDS011;33653;52.302;8.134;2023-11-19T12:17:43;10.02;;;2.28;;
47894;SDS011;33653;52.302;8.134;2023-11-19T12:20:19;12.10;;;2.45;;
47894;SDS011;33653;52.302;8.134;2023-11-19T12:22:54;10.82;;;3.13;;
47894;SDS011;33653;52.302;8.134;2023-11-19T12:25:23;20.67;;;3.03;;
47894;SDS011;33653;52.302;8.134;2023-11-19T12:27:55;8.45;;;2.45;;
47894;SDS011;33653;52.302;8.134;2023-11-19T12:30:24;19.25;;;3.25;;
47894;SDS011;33653;52.302;8.134;2023-11-19T12:32:56;12.45;;;3.83;;
47894;SDS011;33653;52.302;8.134;2023-11-19T12:35:27;16.30;;;3.45;;
47894;SDS011;33653;52.302;8.134;2023-11-19T12:37:55;13.35;;;3.30;;
47894;SDS011;33653;52.302;8.134;2023-11-19T12:40:24;12.85;;;3.22;;
47894;SDS011;33653;52.302;8.134;2023-11-19T12:42:53;11.43;;;2.92;;
47894;SDS011;33653;52.302;8.134;2023-11-19T12:45:23;20.35;;;2.72;;
47894;SDS011;33653;52.302;8.134;2023-11-19T12:48:05;16.67;;;3.00;;
47894;SDS011;33653;52.302;8.134;2023-11-19T12:50:52;9.70;;;2.13;;
47894;SDS011;33653;52.302;8.134;2023-11-19T12:53:22;13.27;;;2.70;;
47894;SDS011;33653;52.302;8.134;2023-11-19T12:55:51;22.73;;;3.60;;
47894;SDS011;33653;52.302;8.134;2023-11-19T12:58:30;24.45;;;4.32;;
47894;SDS011;33653;52.302;8.134;2023-11-19T13:01:04;10.73;;;2.97;;
47894;SDS011;33653;52.302;8.134;2023-11-19T13:03:34;6.72;;;2.47;;
47894;SDS011;33653;52.302;8.134;2023-11-19T13:06:09;16.15;;;2.28;;
47894;SDS011;33653;52.302;8.134;2023-11-19T13:08:43;16.55;;;3.50;;
47894;SDS011;33653;52.302;8.134;2023-11-19T13:11:13;7.68;;;2.33;;
47894;SDS011;33653;52.302;8.134;2023-11-19T13:13:55;14.50;;;2.47;;
47894;SDS011;33653;52.302;8.134;2023-11-19T13:16:27;13.57;;;2.90;;
47894;SDS011;33653;52.302;8.134;2023-11-19T13:18:56;8.05;;;2.10;;
47894;SDS011;33653;52.302;8.134;2023-11-19T13:24:00;5.97;;;1.75;;
47894;SDS011;33653;52.302;8.134;2023-11-19T13:26:29;10.95;;;2.33;;
47894;SDS011;33653;52.302;8.134;2023-11-19T13:28:57;24.90;;;3.58;;
47894;SDS011;33653;52.302;8.134;2023-11-19T13:31:25;13.85;;;2.45;;
47894;SDS011;33653;52.302;8.134;2023-11-19T13:33:54;6.70;;;2.33;;
47894;SDS011;33653;52.302;8.134;2023-11-19T13:36:22;6.30;;;2.03;;
47894;SDS011;33653;52.302;8.134;2023-11-19T13:38:52;10.88;;;2.80;;
47894;SDS011;33653;52.302;8.134;2023-11-19T13:41:30;8.52;;;1.98;;
47894;SDS011;33653;52.302;8.134;2023-11-19T13:44:01;8.18;;;2.13;;
47894;SDS011;33653;52.302;8.134;2023-11-19T13:46:36;13.38;;;2.78;;
47894;SDS011;33653;52.302;8.134;2023-11-19T13:49:05;21.48;;;3.15;;
47894;SDS011;33653;52.302;8.134;2023-11-19T13:51:40;9.68;;;2.20;;
47894;SDS011;33653;52.302;8.134;2023-11-19T13:54:09;15.13;;;2.22;;
47894;SDS011;33653;52.302;8.134;2023-11-19T13:56:37;12.52;;;2.63;;
47894;SDS011;33653;52.302;8.134;2023-11-19T13:59:06;16.67;;;2.85;;
47894;SDS011;33653;52.302;8.134;2023-11-19T14:01:36;12.63;;;2.75;;
47894;SDS011;33653;52.302;8.134;2023-11-19T14:04:09;11.73;;;2.05;;
47894;SDS011;33653;52.302;8.134;2023-11-19T14:06:39;13.95;;;2.63;;
47894;SDS011;33653;52.302;8.134;2023-11-19T14:09:08;12.13;;;2.67;;
47894;SDS011;33653;52.302;8.134;2023-11-19T14:11:42;8.00;;;1.25;;
47894;SDS011;33653;52.302;8.134;2023-11-19T14:14:11;12.07;;;3.05;;
47894;SDS011;33653;52.302;8.134;2023-11-19T14:16:41;13.38;;;2.58;;
47894;SDS011;33653;52.302;8.134;2023-11-19T14:19:10;17.73;;;2.60;;
47894;SDS011;33653;52.302;8.134;2023-11-19T14:24:09;9.77;;;2.22;;
47894;SDS011;33653;52.302;8.134;2023-11-19T14:26:46;5.22;;;1.95;;
47894;SDS011;33653;52.302;8.134;2023-11-19T14:29:16;5.90;;;1.60;;
47894;SDS011;33653;52.302;8.134;2023-11-19T14:31:48;9.43;;;1.67;;
47894;SDS011;33653;52.302;8.134;2023-11-19T14:34:18;11.20;;;2.13;;
47894;SDS011;33653;52.302;8.134;2023-11-19T14:37:04;6.25;;;1.83;;
47894;SDS011;33653;52.302;8.134;2023-11-19T14:39:41;9.10;;;1.92;;
47894;SDS011;33653;52.302;8.134;2023-11-19T14:42:13;9.55;;;1.75;;
47894;SDS011;33653;52.302;8.134;2023-11-19T14:44:49;7.90;;;1.92;;
47894;SDS011;33653;52.302;8.134;2023-11-19T14:47:21;15.18;;;2.05;;
47894;SDS011;33653;52.302;8.134;2023-11-19T14:49:50;14.07;;;2.70;;
47894;SDS011;33653;52.302;8.134;2023-11-19T14:52:18;10.70;;;2.58;;
47894;SDS011;33653;52.302;8.134;2023-11-19T14:57:50;5.13;;;2.30;;
47894;SDS011;33653;52.302;8.134;2023-11-19T15:03:34;8.02;;;1.90;;
47894;SDS011;33653;52.302;8.134;2023-11-19T15:09:18;11.75;;;2.63;;
47894;SDS011;33653;52.302;8.134;2023-11-19T15:11:55;7.65;;;2.03;;
47894;SDS011;33653;52.302;8.134;2023-11-19T15:14:31;13.50;;;2.28;;
47894;SDS011;33653;52.302;8.134;2023-11-19T15:17:15;12.38;;;2.45;;
47894;SDS011;33653;52.302;8.134;2023-11-19T15:19:45;13.10;;;2.78;;
47894;SDS011;33653;52.302;8.134;2023-11-19T15:25:10;4.15;;;2.00;;
47894;SDS011;33653;52.302;8.134;2023-11-19T15:30:33;8.82;;;2.55;;
47894;SDS011;33653;52.302;8.134;2023-11-19T15:33:02;10.57;;;2.33;;
47894;SDS011;33653;52.302;8.134;2023-11-19T15:35:48;6.15;;;1.98;;
47894;SDS011;33653;52.302;8.134;2023-11-19T15:38:24;8.55;;;2.45;;
47894;SDS011;33653;52.302;8.134;2023-11-19T15:43:26;6.00;;;2.08;;
47894;SDS011;33653;52.302;8.134;2023-11-19T15:45:56;15.13;;;2.63;;
47894;SDS011;33653;52.302;8.134;2023-11-19T15:48:25;5.50;;;2.00;;
47894;SDS011;33653;52.302;8.134;2023-11-19T15:50:53;6.53;;;1.67;;
47894;SDS011;33653;52.302;8.134;2023-11-19T15:53:21;7.07;;;2.15;;
47894;SDS011;33653;52.302;8.134;2023-11-19T15:56:05;3.70;;;1.75;;
47894;SDS011;33653;52.302;8.134;2023-11-19T15:58:35;9.07;;;1.98;;
47894;SDS011;33653;52.302;8.134;2023-11-19T16:01:07;9.45;;;2.58;;
47894;SDS011;33653;52.302;8.134;2023-11-19T16:03:44;6.47;;;1.98;;
47894;SDS011;33653;52.302;8.134;2023-11-19T16:06:19;4.82;;;2.05;;
47894;SDS011;33653;52.302;8.134;2023-11-19T16:08:58;15.00;;;2.45;;
47894;SDS011;33653;52.302;8.134;2023-11-19T16:11:27;11.02;;;1.70;;
47894;SDS011;33653;52.302;8.134;2023-11-19T16:14:07;10.57;;;2.07;;
47894;SDS011;33653;52.302;8.134;2023-11-19T16:16:52;5.85;;;2.03;;
47894;SDS011;33653;52.302;8.134;2023-11-19T16:22:29;6.07;;;2.00;;
47894;SDS011;33653;52.302;8.134;2023-11-19T16:28:01;8.25;;;1.80;;
47894;SDS011;33653;52.302;8.134;2023-11-19T16:30:29;3.53;;;1.30;;
47894;SDS011;33653;52.302;8.134;2023-11-19T16:33:10;5.15;;;1.92;;
47894;SDS011;33653;52.302;8.134;2023-11-19T16:38:47;7.85;;;2.00;;
47894;SDS011;33653;52.302;8.134;2023-11-19T16:41:20;6.32;;;1.92;;
47894;SDS011;33653;52.302;8.134;2023-11-19T16:44:18;5.38;;;1.95;;
47894;SDS011;33653;52.302;8.134;2023-11-19T16:46:46;6.45;;;1.98;;
47894;SDS011;33653;52.302;8.134;2023-11-19T16:49:24;16.58;;;2.80;;
47894;SDS011;33653;52.302;8.134;2023-11-19T16:52:00;8.93;;;2.08;;
47894;SDS011;33653;52.302;8.134;2023-11-19T16:54:45;5.97;;;2.00;;
47894;SDS011;33653;52.302;8.134;2023-11-19T16:57:14;5.95;;;2.40;;
47894;SDS011;33653;52.302;8.134;2023-11-19T16:59:49;3.17;;;2.20;;
47894;SDS011;33653;52.302;8.134;2023-11-19T17:02:41;4.65;;;1.48;;
47894;SDS011;33653;52.302;8.134;2023-11-19T17:05:19;7.85;;;2.17;;
47894;SDS011;33653;52.302;8.134;2023-11-19T17:07:48;6.68;;;2.58;;
47894;SDS011;33653;52.302;8.134;2023-11-19T17:10:20;17.85;;;2.78;;
47894;SDS011;33653;52.302;8.134;2023-11-19T17:12:50;7.43;;;1.85;;
47894;SDS011;33653;52.302;8.134;2023-11-19T17:15:22;10.38;;;2.25;;
47894;SDS011;33653;52.302;8.134;2023-11-19T17:17:54;16.73;;;2.17;;
47894;SDS011;33653;52.302;8.134;2023-11-19T17:20:30;11.15;;;2.38;;
47894;SDS011;33653;52.302;8.134;2023-11-19T17:23:00;8.05;;;2.05;;
47894;SDS011;33653;52.302;8.134;2023-11-19T17:25:40;10.45;;;2.25;;
47894;SDS011;33653;52.302;8.134;2023-11-19T17:28:16;6.05;;;1.75;;
47894;SDS011;33653;52.302;8.134;2023-11-19T17:31:04;2.95;;;1.48;;
47894;SDS011;33653;52.302;8.134;2023-11-19T17:33:35;6.65;;;2.30;;
47894;SDS011;33653;52.302;8.134;2023-11-19T17:36:04;8.07;;;2.28;;
47894;SDS011;33653;52.302;8.134;2023-11-19T17:38:33;6.15;;;2.05;;
47894;SDS011;33653;52.302;8.134;2023-11-19T17:43:59;5.53;;;1.48;;
47894;SDS011;33653;52.302;8.134;2023-11-19T17:46:31;6.43;;;1.77;;
47894;SDS011;33653;52.302;8.134;2023-11-19T17:49:06;13.35;;;2.17;;
47894;SDS011;33653;52.302;8.134;2023-11-19T18:00:05;7.28;;;2.10;;
47894;SDS011;33653;52.302;8.134;2023-11-19T18:05:34;6.10;;;2.05;;
47894;SDS011;33653;52.302;8.134;2023-11-19T18:08:09;7.15;;;1.88;;
47894;SDS011;33653;52.302;8.134;2023-11-19T18:13:39;12.43;;;2.22;;
47894;SDS011;33653;52.302;8.134;2023-11-19T18:16:07;8.40;;;1.92;;
47894;SDS011;33653;52.302;8.134;2023-11-19T18:18:43;5.00;;;1.52;;
47894;SDS011;33653;52.302;8.134;2023-11-19T18:21:24;3.67;;;1.35;;
47894;SDS011;33653;52.302;8.134;2023-11-19T18:23:55;4.20;;;1.80;;
47894;SDS011;33653;52.302;8.134;2023-11-19T18:26:24;9.85;;;2.22;;
47894;SDS011;33653;52.302;8.134;2023-11-19T18:29:12;1.98;;;0.68;;
47894;SDS011;33653;52.302;8.134;2023-11-19T18:31:51;6.47;;;2.35;;
47894;SDS011;33653;52.302;8.134;2023-11-19T18:34:20;4.00;;;1.83;;
47894;SDS011;33653;52.302;8.134;2023-11-19T18:36:51;6.63;;;1.85;;
47894;SDS011;33653;52.302;8.134;2023-11-19T18:41:52;10.90;;;2.35;;
47894;SDS011;33653;52.302;8.134;2023-11-19T18:44:20;4.03;;;2.05;;
47894;SDS011;33653;52.302;8.134;2023-11-19T18:46:49;6.40;;;2.53;;
47894;SDS011;33653;52.302;8.134;2023-11-19T18:49:18;12.65;;;2.70;;
47894;SDS011;33653;52.302;8.134;2023-11-19T18:51:49;9.50;;;2.17;;
47894;SDS011;33653;52.302;8.134;2023-11-19T18:54:20;6.70;;;1.75;;
47894;SDS011;33653;52.302;8.134;2023-11-19T18:56:49;7.38;;;2.28;;
47894;SDS011;33653;52.302;8.134;2023-11-19T19:02:17;9.40;;;2.03;;
47894;SDS011;33653;52.302;8.134;2023-11-19T19:04:48;7.53;;;2.00;;
47894;SDS011;33653;52.302;8.134;2023-11-19T19:07:17;7.05;;;1.92;;
47894;SDS011;33653;52.302;8.134;2023-11-19T19:09:47;6.43;;;2.13;;
47894;SDS011;33653;52.302;8.134;2023-11-19T19:12:20;14.13;;;2.55;;
47894;SDS011;33653;52.302;8.134;2023-11-19T19:14:49;15.07;;;3.08;;